sensor_id;sensor_type;location;lat;lon;timestamp;P1;durP1;ratioP1;P2;durP2;ratioP2
11608;SDS011;5860;52.018;8.536;2023-09-18T00:00:46;11.68;;;9.05;;
11608;SDS011;5860;52.018;8.536;2023-09-18T00:03:18;11.40;;;8.80;;
11608;SDS011;5860;52.018;8.536;2023-09-18T00:05:47;15.93;;;9.67;;
11608;SDS011;5860;52.018;8.536;2023-09-18T00:08:15;11.38;;;9.80;;
11608;SDS011;5860;52.018;8.536;2023-09-18T00:10:43;10.60;;;9.52;;
11608;SDS011;5860;52.018;8.536;2023-09-18T00:13:14;13.10;;;9.90;;
11608;SDS011;5860;52.018;8.536;2023-09-18T00:15:41;12.68;;;10.30;;
11608;SDS011;5860;52.018;8.536;2023-09-18T00:18:09;12.70;;;10.47;;
11608;SDS011;5860;52.018;8.536;2023-09-18T00:20:36;11.87;;;10.73;;
11608;SDS011;5860;52.018;8.536;2023-09-18T00:23:03;15.83;;;11.00;;
11608;SDS011;5860;52.018;8.536;2023-09-18T00:25:29;12.13;;;10.73;;
11608;SDS011;5860;52.018;8.536;2023-09-18T00:27:57;13.18;;;11.27;;
11608;SDS011;5860;52.018;8.536;2023-09-18T00:30:25;12.35;;;10.38;;
11608;SDS011;5860;52.018;8.536;2023-09-18T00:32:51;14.07;;;10.55;;
11608;SDS011;5860;52.018;8.536;2023-09-18T00:35:19;12.00;;;10.77;;
11608;SDS011;5860;52.018;8.536;2023-09-18T00:37:46;13.73;;;11.27;;
11608;SDS011;5860;52.018;8.536;2023-09-18T00:40:13;12.13;;;10.63;;
11608;SDS011;5860;52.018;8.536;2023-09-18T00:42:39;12.35;;;11.07;;
11608;SDS011;5860;52.018;8.536;2023-09-18T00:45:06;13.23;;;11.35;;
11608;SDS011;5860;52.018;8.536;2023-09-18T00:47:35;14.83;;;11.67;;
11608;SDS011;5860;52.018;8.536;2023-09-18T00:50:03;13.87;;;11.27;;
11608;SDS011;5860;52.018;8.536;2023-09-18T00:52:33;14.85;;;11.27;;
11608;SDS011;5860;52.018;8.536;2023-09-18T00:55:00;13.73;;;11.95;;
11608;SDS011;5860;52.018;8.536;2023-09-18T00:57:28;13.27;;;11.67;;
11608;SDS011;5860;52.018;8.536;2023-09-18T00:59:55;14.50;;;12.10;;
11608;SDS011;5860;52.018;8.536;2023-09-18T01:02:22;13.57;;;11.38;;
11608;SDS011;5860;52.018;8.536;2023-09-18T01:04:50;16.00;;;12.70;;
11608;SDS011;5860;52.018;8.536;2023-09-18T01:07:17;14.98;;;13.32;;
11608;SDS011;5860;52.018;8.536;2023-09-18T01:09:44;14.13;;;12.00;;
11608;SDS011;5860;52.018;8.536;2023-09-18T01:12:16;17.07;;;13.43;;
11608;SDS011;5860;52.018;8.536;2023-09-18T01:15:04;15.52;;;13.75;;
11608;SDS011;5860;52.018;8.536;2023-09-18T01:17:43;17.93;;;13.30;;
11608;SDS011;5860;52.018;8.536;2023-09-18T01:20:12;18.77;;;13.57;;
11608;SDS011;5860;52.018;8.536;2023-09-18T01:22:39;15.93;;;14.33;;
11608;SDS011;5860;52.018;8.536;2023-09-18T01:25:06;15.57;;;13.97;;
11608;SDS011;5860;52.018;8.536;2023-09-18T01:27:34;15.20;;;13.63;;
11608;SDS011;5860;52.018;8.536;2023-09-18T01:30:01;16.53;;;13.33;;
11608;SDS011;5860;52.018;8.536;2023-09-18T01:32:29;15.83;;;14.20;;
11608;SDS011;5860;52.018;8.536;2023-09-18T01:34:59;16.13;;;14.40;;
11608;SDS011;5860;52.018;8.536;2023-09-18T01:37:29;18.40;;;14.63;;
11608;SDS011;5860;52.018;8.536;2023-09-18T01:39:57;16.40;;;14.23;;
11608;SDS011;5860;52.018;8.536;2023-09-18T01:42:26;21.87;;;14.37;;
11608;SDS011;5860;52.018;8.536;2023-09-18T01:44:54;14.67;;;13.13;;
11608;SDS011;5860;52.018;8.536;2023-09-18T01:47:22;15.57;;;13.97;;
11608;SDS011;5860;52.018;8.536;2023-09-18T01:49:53;17.53;;;15.00;;
11608;SDS011;5860;52.018;8.536;2023-09-18T01:52:20;17.13;;;14.27;;
11608;SDS011;5860;52.018;8.536;2023-09-18T01:54:48;17.87;;;14.10;;
11608;SDS011;5860;52.018;8.536;2023-09-18T01:57:15;16.77;;;14.73;;
11608;SDS011;5860;52.018;8.536;2023-09-18T01:59:42;18.70;;;14.82;;
11608;SDS011;5860;52.018;8.536;2023-09-18T02:02:10;18.10;;;15.30;;
11608;SDS011;5860;52.018;8.536;2023-09-18T02:04:46;16.80;;;14.17;;
11608;SDS011;5860;52.018;8.536;2023-09-18T02:07:33;16.63;;;14.43;;
11608;SDS011;5860;52.018;8.536;2023-09-18T02:10:01;18.07;;;14.93;;
11608;SDS011;5860;52.018;8.536;2023-09-18T02:12:29;18.43;;;14.53;;
11608;SDS011;5860;52.018;8.536;2023-09-18T02:14:56;18.50;;;13.87;;
11608;SDS011;5860;52.018;8.536;2023-09-18T02:17:24;18.30;;;14.03;;
11608;SDS011;5860;52.018;8.536;2023-09-18T02:19:52;17.90;;;14.37;;
11608;SDS011;5860;52.018;8.536;2023-09-18T02:22:18;16.57;;;14.73;;
11608;SDS011;5860;52.018;8.536;2023-09-18T02:24:45;16.43;;;14.17;;
11608;SDS011;5860;52.018;8.536;2023-09-18T02:27:12;16.50;;;14.63;;
11608;SDS011;5860;52.018;8.536;2023-09-18T02:29:42;17.80;;;14.97;;
11608;SDS011;5860;52.018;8.536;2023-09-18T02:32:09;18.27;;;14.97;;
11608;SDS011;5860;52.018;8.536;2023-09-18T02:34:36;20.80;;;14.37;;
11608;SDS011;5860;52.018;8.536;2023-09-18T02:37:03;16.40;;;14.67;;
11608;SDS011;5860;52.018;8.536;2023-09-18T02:39:30;18.87;;;14.80;;
11608;SDS011;5860;52.018;8.536;2023-09-18T02:41:57;18.73;;;14.90;;
11608;SDS011;5860;52.018;8.536;2023-09-18T02:44:24;17.90;;;14.37;;
11608;SDS011;5860;52.018;8.536;2023-09-18T02:46:51;17.27;;;13.93;;
11608;SDS011;5860;52.018;8.536;2023-09-18T02:49:19;15.77;;;13.47;;
11608;SDS011;5860;52.018;8.536;2023-09-18T02:58:15;15.73;;;8.37;;
11608;SDS011;5860;52.018;8.536;2023-09-18T03:00:43;8.60;;;6.07;;
11608;SDS011;5860;52.018;8.536;2023-09-18T03:03:10;7.63;;;5.27;;
11608;SDS011;5860;52.018;8.536;2023-09-18T03:05:38;6.03;;;4.67;;
11608;SDS011;5860;52.018;8.536;2023-09-18T03:08:06;9.32;;;4.43;;
11608;SDS011;5860;52.018;8.536;2023-09-18T03:10:37;8.00;;;4.40;;
11608;SDS011;5860;52.018;8.536;2023-09-18T03:13:09;10.45;;;4.30;;
11608;SDS011;5860;52.018;8.536;2023-09-18T03:15:37;6.68;;;4.35;;
11608;SDS011;5860;52.018;8.536;2023-09-18T03:18:04;5.28;;;4.18;;
11608;SDS011;5860;52.018;8.536;2023-09-18T03:20:33;5.78;;;4.00;;
11608;SDS011;5860;52.018;8.536;2023-09-18T03:23:01;4.47;;;3.40;;
11608;SDS011;5860;52.018;8.536;2023-09-18T03:25:28;6.68;;;3.97;;
11608;SDS011;5860;52.018;8.536;2023-09-18T03:28:14;7.63;;;4.10;;
11608;SDS011;5860;52.018;8.536;2023-09-18T03:30:41;11.25;;;3.95;;
11608;SDS011;5860;52.018;8.536;2023-09-18T03:33:08;6.90;;;4.00;;
11608;SDS011;5860;52.018;8.536;2023-09-18T03:35:44;8.57;;;4.10;;
11608;SDS011;5860;52.018;8.536;2023-09-18T03:38:13;7.68;;;4.00;;
11608;SDS011;5860;52.018;8.536;2023-09-18T03:40:40;6.38;;;4.05;;
11608;SDS011;5860;52.018;8.536;2023-09-18T03:43:07;7.05;;;3.72;;
11608;SDS011;5860;52.018;8.536;2023-09-18T03:45:35;6.47;;;4.13;;
11608;SDS011;5860;52.018;8.536;2023-09-18T03:48:02;4.28;;;3.88;;
11608;SDS011;5860;52.018;8.536;2023-09-18T03:50:29;6.85;;;4.35;;
11608;SDS011;5860;52.018;8.536;2023-09-18T03:52:57;6.18;;;3.95;;
11608;SDS011;5860;52.018;8.536;2023-09-18T03:55:25;8.48;;;5.00;;
11608;SDS011;5860;52.018;8.536;2023-09-18T03:57:52;5.68;;;4.90;;
11608;SDS011;5860;52.018;8.536;2023-09-18T04:00:20;8.63;;;5.18;;
11608;SDS011;5860;52.018;8.536;2023-09-18T04:02:48;4.80;;;4.25;;
11608;SDS011;5860;52.018;8.536;2023-09-18T04:05:15;5.07;;;4.32;;
11608;SDS011;5860;52.018;8.536;2023-09-18T04:07:42;5.40;;;4.10;;
11608;SDS011;5860;52.018;8.536;2023-09-18T04:10:13;4.85;;;3.75;;
11608;SDS011;5860;52.018;8.536;2023-09-18T04:12:50;4.95;;;4.07;;
11608;SDS011;5860;52.018;8.536;2023-09-18T04:15:17;6.10;;;4.15;;
11608;SDS011;5860;52.018;8.536;2023-09-18T04:17:45;5.70;;;3.83;;
11608;SDS011;5860;52.018;8.536;2023-09-18T04:20:12;8.57;;;4.20;;
11608;SDS011;5860;52.018;8.536;2023-09-18T04:22:46;5.88;;;3.97;;
11608;SDS011;5860;52.018;8.536;2023-09-18T04:25:17;4.15;;;3.80;;
11608;SDS011;5860;52.018;8.536;2023-09-18T04:27:46;8.63;;;4.30;;
11608;SDS011;5860;52.018;8.536;2023-09-18T04:30:16;4.18;;;3.78;;
11608;SDS011;5860;52.018;8.536;2023-09-18T04:32:46;6.78;;;4.32;;
11608;SDS011;5860;52.018;8.536;2023-09-18T04:35:13;5.43;;;3.95;;
11608;SDS011;5860;52.018;8.536;2023-09-18T04:37:40;5.97;;;4.00;;
11608;SDS011;5860;52.018;8.536;2023-09-18T04:40:07;6.72;;;3.95;;
11608;SDS011;5860;52.018;8.536;2023-09-18T04:42:38;7.38;;;4.13;;
11608;SDS011;5860;52.018;8.536;2023-09-18T04:45:09;4.82;;;3.65;;
11608;SDS011;5860;52.018;8.536;2023-09-18T04:47:36;6.00;;;4.32;;
11608;SDS011;5860;52.018;8.536;2023-09-18T04:50:03;6.22;;;4.03;;
11608;SDS011;5860;52.018;8.536;2023-09-18T04:52:39;4.82;;;4.13;;
11608;SDS011;5860;52.018;8.536;2023-09-18T04:55:07;8.30;;;4.25;;
11608;SDS011;5860;52.018;8.536;2023-09-18T04:57:34;6.70;;;4.13;;
11608;SDS011;5860;52.018;8.536;2023-09-18T05:00:02;7.32;;;4.25;;
11608;SDS011;5860;52.018;8.536;2023-09-18T05:02:42;6.45;;;3.90;;
11608;SDS011;5860;52.018;8.536;2023-09-18T05:05:10;3.97;;;3.58;;
11608;SDS011;5860;52.018;8.536;2023-09-18T05:07:37;7.10;;;3.67;;
11608;SDS011;5860;52.018;8.536;2023-09-18T05:10:04;5.93;;;4.50;;
11608;SDS011;5860;52.018;8.536;2023-09-18T05:12:31;4.63;;;4.03;;
11608;SDS011;5860;52.018;8.536;2023-09-18T05:14:58;4.40;;;4.00;;
11608;SDS011;5860;52.018;8.536;2023-09-18T05:17:45;5.43;;;4.07;;
11608;SDS011;5860;52.018;8.536;2023-09-18T05:20:15;4.22;;;3.72;;
11608;SDS011;5860;52.018;8.536;2023-09-18T05:22:44;5.68;;;3.95;;
11608;SDS011;5860;52.018;8.536;2023-09-18T05:25:11;6.90;;;4.40;;
11608;SDS011;5860;52.018;8.536;2023-09-18T05:27:41;4.72;;;4.28;;
11608;SDS011;5860;52.018;8.536;2023-09-18T05:30:12;6.78;;;4.80;;
11608;SDS011;5860;52.018;8.536;2023-09-18T05:32:47;5.95;;;4.28;;
11608;SDS011;5860;52.018;8.536;2023-09-18T05:35:14;7.07;;;4.65;;
11608;SDS011;5860;52.018;8.536;2023-09-18T05:37:43;5.82;;;4.50;;
11608;SDS011;5860;52.018;8.536;2023-09-18T05:40:11;5.85;;;4.53;;
11608;SDS011;5860;52.018;8.536;2023-09-18T05:42:40;5.65;;;4.75;;
11608;SDS011;5860;52.018;8.536;2023-09-18T05:45:12;8.90;;;4.63;;
11608;SDS011;5860;52.018;8.536;2023-09-18T05:47:41;5.43;;;4.07;;
11608;SDS011;5860;52.018;8.536;2023-09-18T05:50:09;5.70;;;4.45;;
11608;SDS011;5860;52.018;8.536;2023-09-18T05:52:44;8.45;;;4.22;;
11608;SDS011;5860;52.018;8.536;2023-09-18T05:55:15;5.65;;;4.43;;
11608;SDS011;5860;52.018;8.536;2023-09-18T05:57:42;6.40;;;4.60;;
11608;SDS011;5860;52.018;8.536;2023-09-18T06:00:09;6.50;;;4.43;;
11608;SDS011;5860;52.018;8.536;2023-09-18T06:02:40;7.45;;;4.78;;
11608;SDS011;5860;52.018;8.536;2023-09-18T06:05:07;7.93;;;3.75;;
11608;SDS011;5860;52.018;8.536;2023-09-18T06:07:38;7.03;;;4.25;;
11608;SDS011;5860;52.018;8.536;2023-09-18T06:10:05;11.77;;;3.78;;
11608;SDS011;5860;52.018;8.536;2023-09-18T06:12:33;6.85;;;3.92;;
11608;SDS011;5860;52.018;8.536;2023-09-18T06:15:03;4.65;;;3.83;;
11608;SDS011;5860;52.018;8.536;2023-09-18T06:17:30;6.93;;;4.07;;
11608;SDS011;5860;52.018;8.536;2023-09-18T06:19:57;5.18;;;3.88;;
11608;SDS011;5860;52.018;8.536;2023-09-18T06:22:24;6.70;;;4.43;;
11608;SDS011;5860;52.018;8.536;2023-09-18T06:24:51;8.23;;;4.07;;
11608;SDS011;5860;52.018;8.536;2023-09-18T06:27:18;8.32;;;4.30;;
11608;SDS011;5860;52.018;8.536;2023-09-18T06:29:45;7.75;;;4.30;;
11608;SDS011;5860;52.018;8.536;2023-09-18T06:32:12;6.10;;;4.00;;
11608;SDS011;5860;52.018;8.536;2023-09-18T06:34:39;9.20;;;4.53;;
11608;SDS011;5860;52.018;8.536;2023-09-18T06:37:09;6.10;;;3.70;;
11608;SDS011;5860;52.018;8.536;2023-09-18T06:39:38;6.40;;;4.70;;
11608;SDS011;5860;52.018;8.536;2023-09-18T06:42:05;4.72;;;4.03;;
11608;SDS011;5860;52.018;8.536;2023-09-18T06:44:32;4.65;;;3.90;;
11608;SDS011;5860;52.018;8.536;2023-09-18T06:47:00;8.48;;;3.95;;
11608;SDS011;5860;52.018;8.536;2023-09-18T06:49:27;7.25;;;4.20;;
11608;SDS011;5860;52.018;8.536;2023-09-18T06:51:54;6.22;;;4.15;;
11608;SDS011;5860;52.018;8.536;2023-09-18T06:54:21;6.03;;;4.35;;
11608;SDS011;5860;52.018;8.536;2023-09-18T06:56:48;7.15;;;4.15;;
11608;SDS011;5860;52.018;8.536;2023-09-18T06:59:15;9.82;;;4.05;;
11608;SDS011;5860;52.018;8.536;2023-09-18T07:01:42;6.57;;;4.03;;
11608;SDS011;5860;52.018;8.536;2023-09-18T07:04:09;7.38;;;4.00;;
11608;SDS011;5860;52.018;8.536;2023-09-18T07:06:36;6.70;;;3.67;;
11608;SDS011;5860;52.018;8.536;2023-09-18T07:09:04;7.68;;;4.10;;
11608;SDS011;5860;52.018;8.536;2023-09-18T07:11:33;5.68;;;3.70;;
11608;SDS011;5860;52.018;8.536;2023-09-18T07:14:01;9.30;;;3.80;;
11608;SDS011;5860;52.018;8.536;2023-09-18T07:16:28;4.50;;;3.28;;
11608;SDS011;5860;52.018;8.536;2023-09-18T07:18:56;5.95;;;3.63;;
11608;SDS011;5860;52.018;8.536;2023-09-18T07:21:22;8.45;;;3.70;;
11608;SDS011;5860;52.018;8.536;2023-09-18T07:23:49;7.80;;;3.63;;
11608;SDS011;5860;52.018;8.536;2023-09-18T07:26:16;10.15;;;3.75;;
11608;SDS011;5860;52.018;8.536;2023-09-18T07:28:43;7.38;;;3.60;;
11608;SDS011;5860;52.018;8.536;2023-09-18T07:31:11;10.15;;;3.60;;
11608;SDS011;5860;52.018;8.536;2023-09-18T07:33:38;6.85;;;3.60;;
11608;SDS011;5860;52.018;8.536;2023-09-18T07:36:05;4.88;;;3.55;;
11608;SDS011;5860;52.018;8.536;2023-09-18T07:38:32;8.55;;;3.40;;
11608;SDS011;5860;52.018;8.536;2023-09-18T07:40:59;11.45;;;3.22;;
11608;SDS011;5860;52.018;8.536;2023-09-18T07:43:26;8.75;;;3.50;;
11608;SDS011;5860;52.018;8.536;2023-09-18T07:45:53;5.72;;;2.70;;
11608;SDS011;5860;52.018;8.536;2023-09-18T07:48:24;5.32;;;2.60;;
11608;SDS011;5860;52.018;8.536;2023-09-18T07:50:51;5.90;;;2.92;;
11608;SDS011;5860;52.018;8.536;2023-09-18T07:53:18;8.27;;;2.70;;
11608;SDS011;5860;52.018;8.536;2023-09-18T07:55:47;6.80;;;3.00;;
11608;SDS011;5860;52.018;8.536;2023-09-18T07:58:21;8.75;;;2.65;;
11608;SDS011;5860;52.018;8.536;2023-09-18T08:00:48;8.40;;;2.25;;
11608;SDS011;5860;52.018;8.536;2023-09-18T08:03:18;6.68;;;2.47;;
11608;SDS011;5860;52.018;8.536;2023-09-18T08:05:45;5.28;;;2.30;;
11608;SDS011;5860;52.018;8.536;2023-09-18T08:08:14;6.47;;;2.40;;
11608;SDS011;5860;52.018;8.536;2023-09-18T08:10:40;5.00;;;2.47;;
11608;SDS011;5860;52.018;8.536;2023-09-18T08:13:07;4.38;;;2.00;;
11608;SDS011;5860;52.018;8.536;2023-09-18T08:15:35;6.47;;;2.38;;
11608;SDS011;5860;52.018;8.536;2023-09-18T08:18:02;3.60;;;1.80;;
11608;SDS011;5860;52.018;8.536;2023-09-18T08:20:29;4.28;;;2.08;;
11608;SDS011;5860;52.018;8.536;2023-09-18T08:22:56;8.35;;;2.00;;
11608;SDS011;5860;52.018;8.536;2023-09-18T08:25:23;4.80;;;1.88;;
11608;SDS011;5860;52.018;8.536;2023-09-18T08:27:50;7.13;;;2.13;;
11608;SDS011;5860;52.018;8.536;2023-09-18T08:30:17;4.28;;;1.80;;
11608;SDS011;5860;52.018;8.536;2023-09-18T08:32:47;8.57;;;2.20;;
11608;SDS011;5860;52.018;8.536;2023-09-18T08:35:14;6.93;;;1.85;;
11608;SDS011;5860;52.018;8.536;2023-09-18T08:37:41;5.15;;;1.92;;
11608;SDS011;5860;52.018;8.536;2023-09-18T08:40:12;6.85;;;1.85;;
11608;SDS011;5860;52.018;8.536;2023-09-18T08:42:44;4.65;;;1.92;;
11608;SDS011;5860;52.018;8.536;2023-09-18T08:45:15;5.03;;;2.00;;
11608;SDS011;5860;52.018;8.536;2023-09-18T08:47:49;6.80;;;2.00;;
11608;SDS011;5860;52.018;8.536;2023-09-18T08:50:18;6.03;;;2.05;;
11608;SDS011;5860;52.018;8.536;2023-09-18T08:52:47;3.95;;;2.00;;
11608;SDS011;5860;52.018;8.536;2023-09-18T08:55:15;7.57;;;2.47;;
11608;SDS011;5860;52.018;8.536;2023-09-18T08:57:43;8.02;;;1.98;;
11608;SDS011;5860;52.018;8.536;2023-09-18T09:00:12;6.40;;;2.03;;
11608;SDS011;5860;52.018;8.536;2023-09-18T09:02:43;6.65;;;1.95;;
11608;SDS011;5860;52.018;8.536;2023-09-18T09:05:11;6.53;;;2.03;;
11608;SDS011;5860;52.018;8.536;2023-09-18T09:07:38;4.60;;;1.90;;
11608;SDS011;5860;52.018;8.536;2023-09-18T09:10:05;6.40;;;2.17;;
11608;SDS011;5860;52.018;8.536;2023-09-18T09:15:23;5.03;;;1.50;;
11608;SDS011;5860;52.018;8.536;2023-09-18T09:18:02;4.15;;;1.85;;
11608;SDS011;5860;52.018;8.536;2023-09-18T09:20:32;4.35;;;1.80;;
11608;SDS011;5860;52.018;8.536;2023-09-18T09:23:00;5.18;;;1.98;;
11608;SDS011;5860;52.018;8.536;2023-09-18T09:25:28;4.50;;;2.00;;
11608;SDS011;5860;52.018;8.536;2023-09-18T09:28:00;6.30;;;2.15;;
11608;SDS011;5860;52.018;8.536;2023-09-18T09:30:31;4.30;;;2.03;;
11608;SDS011;5860;52.018;8.536;2023-09-18T09:32:59;5.97;;;1.73;;
11608;SDS011;5860;52.018;8.536;2023-09-18T09:35:30;6.15;;;2.00;;
11608;SDS011;5860;52.018;8.536;2023-09-18T09:38:01;5.40;;;2.10;;
11608;SDS011;5860;52.018;8.536;2023-09-18T09:40:39;5.75;;;2.20;;
11608;SDS011;5860;52.018;8.536;2023-09-18T09:43:08;6.97;;;1.95;;
11608;SDS011;5860;52.018;8.536;2023-09-18T09:45:37;8.20;;;2.47;;
11608;SDS011;5860;52.018;8.536;2023-09-18T09:48:05;4.25;;;1.83;;
11608;SDS011;5860;52.018;8.536;2023-09-18T09:50:33;7.32;;;2.13;;
11608;SDS011;5860;52.018;8.536;2023-09-18T09:53:13;5.85;;;1.58;;
11608;SDS011;5860;52.018;8.536;2023-09-18T09:55:40;4.70;;;2.17;;
11608;SDS011;5860;52.018;8.536;2023-09-18T09:58:08;7.85;;;1.88;;
11608;SDS011;5860;52.018;8.536;2023-09-18T10:03:17;7.38;;;2.00;;
11608;SDS011;5860;52.018;8.536;2023-09-18T10:05:51;4.72;;;1.85;;
11608;SDS011;5860;52.018;8.536;2023-09-18T10:08:22;3.83;;;1.75;;
11608;SDS011;5860;52.018;8.536;2023-09-18T10:10:53;4.95;;;1.90;;
11608;SDS011;5860;52.018;8.536;2023-09-18T10:16:30;7.82;;;2.03;;
11608;SDS011;5860;52.018;8.536;2023-09-18T10:22:06;6.43;;;1.70;;
11608;SDS011;5860;52.018;8.536;2023-09-18T10:24:48;4.15;;;1.83;;
11608;SDS011;5860;52.018;8.536;2023-09-18T10:27:20;6.97;;;1.65;;
11608;SDS011;5860;52.018;8.536;2023-09-18T10:29:49;6.65;;;1.77;;
11608;SDS011;5860;52.018;8.536;2023-09-18T10:32:18;6.68;;;1.95;;
11608;SDS011;5860;52.018;8.536;2023-09-18T10:34:47;6.15;;;1.98;;
11608;SDS011;5860;52.018;8.536;2023-09-18T10:37:14;4.63;;;1.92;;
11608;SDS011;5860;52.018;8.536;2023-09-18T10:39:42;8.07;;;1.95;;
11608;SDS011;5860;52.018;8.536;2023-09-18T10:42:14;6.82;;;2.58;;
11608;SDS011;5860;52.018;8.536;2023-09-18T10:44:43;6.18;;;2.10;;
11608;SDS011;5860;52.018;8.536;2023-09-18T10:47:10;6.38;;;2.20;;
11608;SDS011;5860;52.018;8.536;2023-09-18T10:49:40;3.33;;;1.67;;
11608;SDS011;5860;52.018;8.536;2023-09-18T10:52:11;4.10;;;1.45;;
11608;SDS011;5860;52.018;8.536;2023-09-18T10:54:39;6.13;;;1.60;;
11608;SDS011;5860;52.018;8.536;2023-09-18T10:57:06;4.68;;;1.70;;
11608;SDS011;5860;52.018;8.536;2023-09-18T10:59:33;3.78;;;1.50;;
11608;SDS011;5860;52.018;8.536;2023-09-18T11:02:03;4.22;;;1.90;;
11608;SDS011;5860;52.018;8.536;2023-09-18T11:04:33;7.35;;;2.28;;
11608;SDS011;5860;52.018;8.536;2023-09-18T11:07:03;4.90;;;1.90;;
11608;SDS011;5860;52.018;8.536;2023-09-18T11:09:32;5.88;;;1.65;;
11608;SDS011;5860;52.018;8.536;2023-09-18T11:12:08;5.63;;;1.70;;
11608;SDS011;5860;52.018;8.536;2023-09-18T11:23:01;5.95;;;1.95;;
11608;SDS011;5860;52.018;8.536;2023-09-18T11:30:51;3.67;;;1.50;;
11608;SDS011;5860;52.018;8.536;2023-09-18T11:33:40;4.15;;;1.90;;
11608;SDS011;5860;52.018;8.536;2023-09-18T11:36:14;4.28;;;1.67;;
11608;SDS011;5860;52.018;8.536;2023-09-18T11:38:57;5.50;;;1.90;;
11608;SDS011;5860;52.018;8.536;2023-09-18T11:41:32;6.32;;;1.88;;
11608;SDS011;5860;52.018;8.536;2023-09-18T11:46:48;2.78;;;1.70;;
11608;SDS011;5860;52.018;8.536;2023-09-18T11:49:19;3.17;;;1.60;;
11608;SDS011;5860;52.018;8.536;2023-09-18T11:51:54;5.20;;;1.88;;
11608;SDS011;5860;52.018;8.536;2023-09-18T11:54:24;5.82;;;1.60;;
11608;SDS011;5860;52.018;8.536;2023-09-18T11:56:51;4.55;;;1.80;;
11608;SDS011;5860;52.018;8.536;2023-09-18T11:59:22;2.90;;;1.85;;
11608;SDS011;5860;52.018;8.536;2023-09-18T12:02:13;3.00;;;1.50;;
11608;SDS011;5860;52.018;8.536;2023-09-18T12:04:54;2.92;;;1.40;;
11608;SDS011;5860;52.018;8.536;2023-09-18T12:07:23;4.40;;;1.52;;
11608;SDS011;5860;52.018;8.536;2023-09-18T12:09:51;3.20;;;1.60;;
11608;SDS011;5860;52.018;8.536;2023-09-18T12:12:20;3.15;;;1.50;;
11608;SDS011;5860;52.018;8.536;2023-09-18T12:14:48;2.75;;;2.08;;
11608;SDS011;5860;52.018;8.536;2023-09-18T12:17:15;4.97;;;2.42;;
11608;SDS011;5860;52.018;8.536;2023-09-18T12:19:52;3.40;;;1.95;;
11608;SDS011;5860;52.018;8.536;2023-09-18T12:22:23;2.80;;;1.40;;
11608;SDS011;5860;52.018;8.536;2023-09-18T12:25:10;2.60;;;1.50;;
11608;SDS011;5860;52.018;8.536;2023-09-18T12:27:41;3.33;;;1.52;;
11608;SDS011;5860;52.018;8.536;2023-09-18T12:30:09;2.05;;;1.55;;
11608;SDS011;5860;52.018;8.536;2023-09-18T12:32:37;3.97;;;1.40;;
11608;SDS011;5860;52.018;8.536;2023-09-18T12:35:07;2.90;;;1.40;;
11608;SDS011;5860;52.018;8.536;2023-09-18T12:37:39;4.50;;;1.63;;
11608;SDS011;5860;52.018;8.536;2023-09-18T12:40:26;3.95;;;1.70;;
11608;SDS011;5860;52.018;8.536;2023-09-18T12:42:55;4.55;;;1.73;;
11608;SDS011;5860;52.018;8.536;2023-09-18T12:45:26;3.70;;;1.50;;
11608;SDS011;5860;52.018;8.536;2023-09-18T12:47:54;5.30;;;1.60;;
11608;SDS011;5860;52.018;8.536;2023-09-18T12:50:24;2.67;;;1.42;;
11608;SDS011;5860;52.018;8.536;2023-09-18T12:52:51;4.25;;;1.00;;
11608;SDS011;5860;52.018;8.536;2023-09-18T12:55:25;2.40;;;1.05;;
11608;SDS011;5860;52.018;8.536;2023-09-18T12:57:54;3.63;;;1.45;;
11608;SDS011;5860;52.018;8.536;2023-09-18T13:00:22;4.57;;;2.17;;
11608;SDS011;5860;52.018;8.536;2023-09-18T13:02:50;2.13;;;1.05;;
11608;SDS011;5860;52.018;8.536;2023-09-18T13:05:23;3.90;;;1.38;;
11608;SDS011;5860;52.018;8.536;2023-09-18T13:07:52;3.85;;;1.48;;
11608;SDS011;5860;52.018;8.536;2023-09-18T13:10:20;2.42;;;1.35;;
11608;SDS011;5860;52.018;8.536;2023-09-18T13:12:52;3.42;;;1.40;;
11608;SDS011;5860;52.018;8.536;2023-09-18T13:15:30;4.22;;;1.48;;
11608;SDS011;5860;52.018;8.536;2023-09-18T13:17:59;3.63;;;1.75;;
11608;SDS011;5860;52.018;8.536;2023-09-18T13:20:30;2.70;;;0.93;;
11608;SDS011;5860;52.018;8.536;2023-09-18T13:22:58;3.20;;;1.67;;
11608;SDS011;5860;52.018;8.536;2023-09-18T13:25:31;6.43;;;1.70;;
11608;SDS011;5860;52.018;8.536;2023-09-18T13:28:05;4.22;;;1.48;;
11608;SDS011;5860;52.018;8.536;2023-09-18T13:30:34;3.00;;;1.77;;
11608;SDS011;5860;52.018;8.536;2023-09-18T13:33:06;4.35;;;1.45;;
11608;SDS011;5860;52.018;8.536;2023-09-18T13:35:35;3.55;;;1.40;;
11608;SDS011;5860;52.018;8.536;2023-09-18T13:38:04;4.85;;;1.60;;
11608;SDS011;5860;52.018;8.536;2023-09-18T13:40:34;4.75;;;1.48;;
11608;SDS011;5860;52.018;8.536;2023-09-18T13:43:05;3.08;;;1.50;;
11608;SDS011;5860;52.018;8.536;2023-09-18T13:45:34;2.20;;;1.50;;
11608;SDS011;5860;52.018;8.536;2023-09-18T13:48:02;1.40;;;1.30;;
11608;SDS011;5860;52.018;8.536;2023-09-18T13:50:33;4.28;;;1.40;;
11608;SDS011;5860;52.018;8.536;2023-09-18T13:53:01;3.08;;;1.30;;
11608;SDS011;5860;52.018;8.536;2023-09-18T13:55:30;4.35;;;1.48;;
11608;SDS011;5860;52.018;8.536;2023-09-18T13:57:58;3.97;;;1.30;;
11608;SDS011;5860;52.018;8.536;2023-09-18T14:00:25;4.47;;;1.42;;
11608;SDS011;5860;52.018;8.536;2023-09-18T14:02:52;2.35;;;1.30;;
11608;SDS011;5860;52.018;8.536;2023-09-18T14:05:19;2.45;;;1.20;;
11608;SDS011;5860;52.018;8.536;2023-09-18T14:07:47;6.00;;;1.50;;
11608;SDS011;5860;52.018;8.536;2023-09-18T14:10:14;3.33;;;1.42;;
11608;SDS011;5860;52.018;8.536;2023-09-18T14:12:41;5.30;;;1.40;;
11608;SDS011;5860;52.018;8.536;2023-09-18T14:15:09;2.60;;;1.50;;
11608;SDS011;5860;52.018;8.536;2023-09-18T14:17:37;1.60;;;1.10;;
11608;SDS011;5860;52.018;8.536;2023-09-18T14:20:05;3.28;;;1.33;;
11608;SDS011;5860;52.018;8.536;2023-09-18T14:22:36;2.45;;;1.35;;
11608;SDS011;5860;52.018;8.536;2023-09-18T14:25:03;3.42;;;1.38;;
11608;SDS011;5860;52.018;8.536;2023-09-18T14:27:33;5.07;;;1.40;;
11608;SDS011;5860;52.018;8.536;2023-09-18T14:30:02;3.60;;;1.17;;
11608;SDS011;5860;52.018;8.536;2023-09-18T14:32:33;4.03;;;1.45;;
11608;SDS011;5860;52.018;8.536;2023-09-18T14:35:03;5.65;;;1.50;;
11608;SDS011;5860;52.018;8.536;2023-09-18T14:37:31;2.45;;;1.35;;
11608;SDS011;5860;52.018;8.536;2023-09-18T14:39:58;2.97;;;1.50;;
11608;SDS011;5860;52.018;8.536;2023-09-18T14:42:25;3.30;;;1.42;;
11608;SDS011;5860;52.018;8.536;2023-09-18T14:44:52;2.25;;;1.55;;
11608;SDS011;5860;52.018;8.536;2023-09-18T14:47:19;1.55;;;1.45;;
11608;SDS011;5860;52.018;8.536;2023-09-18T14:49:49;3.22;;;1.73;;
11608;SDS011;5860;52.018;8.536;2023-09-18T14:52:16;3.75;;;1.60;;
11608;SDS011;5860;52.018;8.536;2023-09-18T14:54:44;4.47;;;1.73;;
11608;SDS011;5860;52.018;8.536;2023-09-18T14:57:13;6.25;;;1.98;;
11608;SDS011;5860;52.018;8.536;2023-09-18T14:59:40;1.60;;;1.40;;
11608;SDS011;5860;52.018;8.536;2023-09-18T15:02:09;2.20;;;1.55;;
11608;SDS011;5860;52.018;8.536;2023-09-18T15:04:36;2.97;;;1.90;;
11608;SDS011;5860;52.018;8.536;2023-09-18T15:07:03;2.58;;;1.55;;
11608;SDS011;5860;52.018;8.536;2023-09-18T15:09:30;3.30;;;1.65;;
11608;SDS011;5860;52.018;8.536;2023-09-18T15:11:57;2.22;;;1.42;;
11608;SDS011;5860;52.018;8.536;2023-09-18T15:14:24;3.05;;;1.70;;
11608;SDS011;5860;52.018;8.536;2023-09-18T15:16:51;2.42;;;1.48;;
11608;SDS011;5860;52.018;8.536;2023-09-18T15:19:18;3.72;;;1.65;;
11608;SDS011;5860;52.018;8.536;2023-09-18T15:21:46;2.05;;;1.38;;
11608;SDS011;5860;52.018;8.536;2023-09-18T15:24:13;2.55;;;1.60;;
11608;SDS011;5860;52.018;8.536;2023-09-18T15:26:40;3.42;;;1.60;;
11608;SDS011;5860;52.018;8.536;2023-09-18T15:29:07;2.88;;;1.60;;
11608;SDS011;5860;52.018;8.536;2023-09-18T15:31:35;2.47;;;1.40;;
11608;SDS011;5860;52.018;8.536;2023-09-18T15:34:02;2.85;;;1.52;;
11608;SDS011;5860;52.018;8.536;2023-09-18T15:36:29;4.30;;;1.40;;
11608;SDS011;5860;52.018;8.536;2023-09-18T15:38:58;5.50;;;1.95;;
11608;SDS011;5860;52.018;8.536;2023-09-18T15:41:26;2.40;;;1.65;;